Airport Name : Camp Pendleton MCAS

Other Name : Camp Pendleton

ICAO : KNFG

IATA :

FAA : NFG

Latitude : 33.30125

Longitude : -117.355147

Country : United States

Local Date and Time : 7/21/2018 2:25:00 AM

 

TAF (Terminal Aerodrome Forecast)

 

METAR (METeorological Aerodrome Report)

KNFG 210855Z AUTO 05003KT 10SM FEW018 19/17 A2996 RMK AO2 SLP144 T01940172 58001

KNFG 210755Z AUTO 00000KT 10SM CLR 19/18 A2997 RMK AO2 SLP146 T01940178 402670178

KNFG 210655Z AUTO 00000KT 10SM CLR 20/18 A2996 RMK AO2 SLP146 T02000178

KNFG 210555Z COR 00000KT 10SM FEW011 21/18 A2996 RMK AO2 SLP145 T02060183 10250 20206 51013